Terminal Aerodrome Forecast
Issued by NWS

Home | Current Version | Previous Version | Text Only | Print | Product List | Glossary On
Versions: 1 2 3 4 5 6 7 8 9 10 11 12 13 14 15 16 17 18 19 20 21 22 23 24 25 26
397
FTAK31 PAFA 070538
TAFAUN
TAF
PAUN 070538Z 0706/0806 08015KT P6SM OVC025
      TEMPO 0708/0712 09015KT 5SM -SHSN BR OVC015
     FM071200 09015KT 4SM -SHSN BR OVC015
     FM071500 09012KT P6SM SCT050 BKN100=

USA.gov is the U.S. government's official web portal to all federal, state and local government web resources and services.